Terminal Aerodrome Forecast
Issued by NWS

Current Version | Previous Version | Text Only | Print | Product List | Glossary On
Versions: 1 2 3 4 5 6 7 8 9 10 11 12 13 14 15
000
FTUS43 KOAX 140500
TAFSNY
TAF
KSNY 140529Z 1406/1506 25008KT P6SM SKC
     FM141700 03012G19KT P6SM SCT100
     FM150200 13007KT P6SM BKN100=

USA.gov is the U.S. government's official web portal to all federal, state and local government web resources and services.